createdAt,value
2018-08-04T00:02:11.803Z,2.27
2018-08-04T00:04:40.585Z,4.17
2018-08-04T00:07:09.426Z,3.00
2018-08-04T00:09:38.237Z,2.00
2018-08-04T00:12:07.134Z,1.90
2018-08-04T00:14:35.937Z,2.43
2018-08-04T00:17:04.871Z,1.80
2018-08-04T00:19:33.629Z,1.93
2018-08-04T00:22:02.420Z,2.40
2018-08-04T00:24:31.205Z,1.93
2018-08-04T00:26:59.995Z,3.37
2018-08-04T00:29:28.774Z,2.93
2018-08-04T00:31:57.578Z,2.27
2018-08-04T00:34:26.365Z,2.53
2018-08-04T00:36:55.137Z,2.70
2018-08-04T00:39:23.934Z,5.33
2018-08-04T00:41:52.725Z,2.20
2018-08-04T00:44:21.514Z,3.37
2018-08-04T00:46:50.302Z,2.20
2018-08-04T00:49:19.146Z,2.93
2018-08-04T00:51:48.006Z,2.47
2018-08-04T00:54:16.808Z,3.87
2018-08-04T00:56:45.582Z,4.10
2018-08-04T00:59:14.303Z,2.10
2018-08-04T01:01:43.365Z,2.80
2018-08-04T01:04:12.170Z,3.83
2018-08-04T01:06:41.009Z,2.90
2018-08-04T01:09:10.565Z,2.83
2018-08-04T01:11:39.685Z,2.20
2018-08-04T01:14:08.513Z,1.90
2018-08-04T01:16:37.326Z,2.93
2018-08-04T01:19:06.133Z,3.30
2018-08-04T01:21:34.898Z,2.23
2018-08-04T01:24:03.662Z,4.70
2018-08-04T01:26:32.442Z,3.23
2018-08-04T01:29:01.246Z,2.47
2018-08-04T01:31:30.034Z,2.90
2018-08-04T01:33:58.864Z,3.67
2018-08-04T01:36:27.623Z,2.50
2018-08-04T01:38:56.498Z,2.73
2018-08-04T01:41:25.268Z,2.93
2018-08-04T01:43:54.046Z,4.60
2018-08-04T01:46:22.817Z,2.50
2018-08-04T01:48:51.591Z,2.60
2018-08-04T01:51:20.354Z,1.70
2018-08-04T01:53:49.135Z,3.20
2018-08-04T01:56:17.935Z,1.37
2018-08-04T01:58:46.698Z,2.37
2018-08-04T02:01:15.558Z,3.07
2018-08-04T02:03:44.442Z,2.40
2018-08-04T02:06:13.242Z,3.10
2018-08-04T02:08:42.018Z,2.60
2018-08-04T02:11:10.910Z,3.63
2018-08-04T02:13:39.694Z,6.53
2018-08-04T02:16:08.498Z,2.97
2018-08-04T02:18:37.278Z,2.47
2018-08-04T02:21:06.092Z,1.57
2018-08-04T02:23:34.879Z,1.87
2018-08-04T02:26:03.665Z,3.10
2018-08-04T02:28:32.430Z,3.10
2018-08-04T02:31:01.230Z,3.60
2018-08-04T02:33:30.123Z,2.53
2018-08-04T02:35:58.958Z,1.57
2018-08-04T02:38:27.738Z,2.20
2018-08-04T02:40:56.514Z,1.83
2018-08-04T02:43:25.291Z,1.83
2018-08-04T02:45:54.058Z,1.87
2018-08-04T02:48:22.844Z,3.03
2018-08-04T02:50:51.619Z,2.10
2018-08-04T02:53:20.410Z,4.80
2018-08-04T02:55:49.450Z,1.90
2018-08-04T02:58:18.214Z,2.43
2018-08-04T03:00:47.143Z,3.00
2018-08-04T03:03:15.899Z,1.67
2018-08-04T03:05:44.719Z,1.77
2018-08-04T03:08:13.547Z,2.70
2018-08-04T03:10:42.301Z,2.13
2018-08-04T03:13:11.042Z,2.83
2018-08-04T03:15:39.834Z,1.33
2018-08-04T03:18:08.606Z,1.60
2018-08-04T03:20:37.371Z,3.23
2018-08-04T03:23:06.142Z,1.53
2018-08-04T03:25:34.941Z,3.23
2018-08-04T03:28:03.710Z,1.30
2018-08-04T03:30:32.480Z,2.13
2018-08-04T03:33:01.262Z,2.13
2018-08-04T03:35:36.430Z,3.80
2018-08-04T03:38:05.215Z,2.13
2018-08-04T03:40:33.983Z,5.67
2018-08-04T03:43:02.791Z,9.03
2018-08-04T03:45:31.614Z,2.53
2018-08-04T03:48:00.378Z,1.17
2018-08-04T03:50:29.222Z,1.33
2018-08-04T03:52:57.956Z,2.07
2018-08-04T03:55:26.761Z,1.27
2018-08-04T03:57:55.537Z,1.53
2018-08-04T04:00:24.310Z,1.10
2018-08-04T04:02:53.097Z,1.40
2018-08-04T04:05:21.942Z,0.90
2018-08-04T04:07:50.742Z,1.03
2018-08-04T04:10:19.582Z,1.10
2018-08-04T04:12:48.465Z,1.90
2018-08-04T04:15:17.289Z,2.60
2018-08-04T04:17:47.886Z,1.43
2018-08-04T04:20:18.434Z,2.77
2018-08-04T04:22:47.306Z,1.50
2018-08-04T04:25:16.077Z,4.67
2018-08-04T04:27:45.094Z,4.37
2018-08-04T04:30:14.665Z,3.63
2018-08-04T04:32:43.486Z,2.30
2018-08-04T04:35:12.266Z,3.20
2018-08-04T04:37:41.026Z,3.27
2018-08-04T04:40:09.947Z,1.33
2018-08-04T04:42:38.746Z,1.30
2018-08-04T04:45:07.556Z,3.23
2018-08-04T04:47:36.332Z,1.47
2018-08-04T04:50:05.218Z,2.30
2018-08-04T04:52:34.034Z,2.20
2018-08-04T04:55:02.848Z,2.37
2018-08-04T04:57:31.906Z,3.40
2018-08-04T05:00:00.810Z,3.87
2018-08-04T05:02:29.570Z,2.87
2018-08-04T05:04:58.335Z,1.57
2018-08-04T05:07:27.114Z,4.57
2018-08-04T05:09:55.897Z,1.77
2018-08-04T05:12:24.735Z,2.57
2018-08-04T05:14:53.476Z,2.07
2018-08-04T05:17:22.298Z,3.20
2018-08-04T05:19:51.082Z,2.13
2018-08-04T05:22:19.846Z,2.80
2018-08-04T05:24:48.619Z,3.87
2018-08-04T05:27:17.462Z,1.60
2018-08-04T05:29:46.253Z,3.67
2018-08-04T05:32:15.036Z,4.77
2018-08-04T05:34:43.927Z,2.37
2018-08-04T05:37:12.670Z,1.70
2018-08-04T05:39:41.450Z,2.73
2018-08-04T05:42:10.254Z,1.87
2018-08-04T05:44:39.035Z,1.67
2018-08-04T05:47:07.839Z,2.63
2018-08-04T05:49:36.647Z,2.67
2018-08-04T05:52:05.707Z,1.90
2018-08-04T05:54:34.450Z,1.90
2018-08-04T05:57:03.297Z,2.37
2018-08-04T05:59:32.092Z,3.37
2018-08-04T06:02:00.924Z,2.77
2018-08-04T06:04:30.002Z,2.03
2018-08-04T06:06:58.805Z,2.87
2018-08-04T06:09:27.576Z,1.93
2018-08-04T06:11:56.346Z,3.03
2018-08-04T06:14:25.077Z,3.33
2018-08-04T06:16:53.873Z,4.50
2018-08-04T06:19:22.631Z,2.37
2018-08-04T06:21:51.406Z,3.27
2018-08-04T06:24:20.184Z,1.70
2018-08-04T06:26:48.977Z,2.40
2018-08-04T06:29:17.850Z,5.13
2018-08-04T06:31:46.622Z,4.60
2018-08-04T06:34:15.391Z,4.40
2018-08-04T06:36:44.181Z,3.90
2018-08-04T06:39:13.002Z,3.27
2018-08-04T06:41:41.832Z,2.90
2018-08-04T06:44:10.620Z,5.43
2018-08-04T06:46:39.396Z,2.07
2018-08-04T06:49:08.304Z,2.07
2018-08-04T06:51:37.134Z,2.27
2018-08-04T06:54:06.117Z,2.97
2018-08-04T06:56:34.906Z,2.20
2018-08-04T06:59:03.776Z,2.03
2018-08-04T07:01:32.766Z,3.23
2018-08-04T07:04:01.560Z,3.20
2018-08-04T07:06:30.331Z,1.83
2018-08-04T07:08:59.165Z,4.07
2018-08-04T07:11:27.966Z,4.87
2018-08-04T07:13:56.859Z,4.23
2018-08-04T07:16:25.621Z,3.70
2018-08-04T07:18:54.438Z,2.23
2018-08-04T07:21:23.252Z,1.53
2018-08-04T07:23:52.055Z,1.80
2018-08-04T07:26:20.869Z,2.57
2018-08-04T07:28:49.730Z,3.90
2018-08-04T07:31:18.438Z,3.67
2018-08-04T07:33:47.328Z,1.90
2018-08-04T07:36:16.137Z,1.90
2018-08-04T07:38:44.904Z,3.37
2018-08-04T07:41:13.906Z,4.00
2018-08-04T07:43:42.706Z,1.97
2018-08-04T07:46:11.618Z,1.70
2018-08-04T07:48:40.504Z,1.87
2018-08-04T07:51:09.320Z,1.37
2018-08-04T07:53:38.153Z,1.77
2018-08-04T07:56:06.935Z,1.83
2018-08-04T07:58:35.974Z,1.77
2018-08-04T08:01:04.813Z,2.23
2018-08-04T08:03:33.592Z,2.17
2018-08-04T08:06:02.394Z,3.53
2018-08-04T08:08:31.187Z,2.13
2018-08-04T08:11:00.033Z,1.90
2018-08-04T08:13:29.081Z,2.93
2018-08-04T08:15:57.878Z,1.70
2018-08-04T08:18:26.657Z,7.53
2018-08-04T08:20:55.466Z,1.93
2018-08-04T08:23:24.271Z,4.83
2018-08-04T08:26:04.664Z,1.93
2018-08-04T08:28:33.498Z,2.20
2018-08-04T08:31:02.286Z,2.40
2018-08-04T08:33:31.289Z,3.13
2018-08-04T08:36:00.145Z,2.70
2018-08-04T08:38:30.120Z,3.13
2018-08-04T08:40:59.294Z,2.97
2018-08-04T08:43:28.697Z,2.80
2018-08-04T08:45:57.912Z,2.00
2018-08-04T08:48:26.804Z,3.20
2018-08-04T08:50:55.594Z,2.63
2018-08-04T08:53:24.972Z,3.37
2018-08-04T08:55:53.986Z,2.40
2018-08-04T08:58:22.762Z,4.50
2018-08-04T09:00:51.590Z,5.53
2018-08-04T09:03:20.423Z,2.40
2018-08-04T09:05:49.241Z,3.77
2018-08-04T09:08:18.042Z,4.75
2018-08-04T09:10:46.842Z,5.63
2018-08-04T09:13:15.627Z,3.00
2018-08-04T09:15:44.446Z,2.77
2018-08-04T09:18:13.224Z,3.60
2018-08-04T09:20:42.033Z,2.37
2018-08-04T09:23:10.822Z,3.57
2018-08-04T09:25:39.639Z,2.27
2018-08-04T09:28:08.437Z,2.27
2018-08-04T09:30:37.223Z,3.47
2018-08-04T09:33:06.407Z,6.63
2018-08-04T09:35:35.214Z,3.20
2018-08-04T09:38:04.092Z,7.60
2018-08-04T09:40:33.246Z,2.50
2018-08-04T09:43:02.161Z,2.10
2018-08-04T09:45:30.953Z,2.37
2018-08-04T09:48:00.071Z,6.77
2018-08-04T09:50:28.890Z,6.10
2018-08-04T09:52:57.723Z,8.60
2018-08-04T09:55:26.518Z,2.73
2018-08-04T09:57:55.318Z,4.10
2018-08-04T10:01:31.103Z,4.07
2018-08-04T10:03:59.977Z,2.50
2018-08-04T10:06:28.386Z,5.23
2018-08-04T10:08:57.166Z,4.43
2018-08-04T10:11:26.038Z,2.17
2018-08-04T10:13:54.808Z,2.27
2018-08-04T10:16:26.653Z,2.37
2018-08-04T10:19:01.810Z,4.10
2018-08-04T10:21:30.606Z,3.33
2018-08-04T10:23:59.753Z,5.83
2018-08-04T10:26:29.386Z,2.43
2018-08-04T10:28:58.170Z,3.57
2018-08-04T10:31:27.002Z,2.07
2018-08-04T10:33:55.762Z,4.77
2018-08-04T10:36:24.610Z,3.40
2018-08-04T10:38:53.422Z,3.70
2018-08-04T10:41:22.226Z,2.83
2018-08-04T10:43:51.047Z,2.17
2018-08-04T10:46:19.834Z,2.00
2018-08-04T10:48:48.644Z,3.17
2018-08-04T10:51:17.455Z,2.27
2018-08-04T10:53:46.293Z,2.77
2018-08-04T10:56:15.085Z,2.67
2018-08-04T10:58:43.909Z,2.63
2018-08-04T11:01:12.717Z,3.17
2018-08-04T11:03:41.561Z,4.43
2018-08-04T11:06:10.330Z,2.53
2018-08-04T11:08:39.108Z,2.67
2018-08-04T11:11:08.254Z,2.10
2018-08-04T11:13:37.057Z,2.67
2018-08-04T11:16:06.026Z,3.30
2018-08-04T11:18:34.833Z,2.40
2018-08-04T11:21:03.674Z,1.70
2018-08-04T11:23:32.700Z,3.23
2018-08-04T11:26:01.502Z,2.27
2018-08-04T11:28:30.314Z,1.90
2018-08-04T11:30:59.225Z,2.00
2018-08-04T11:33:27.981Z,1.63
2018-08-04T11:35:56.826Z,7.93
2018-08-04T11:38:25.979Z,3.03
2018-08-04T11:40:54.770Z,5.10
2018-08-04T11:43:23.551Z,4.63
2018-08-04T11:45:52.334Z,3.50
2018-08-04T11:48:21.106Z,1.93
2018-08-04T11:50:49.928Z,1.93
2018-08-04T11:53:18.714Z,2.00
2018-08-04T11:55:47.506Z,4.47
2018-08-04T11:58:16.280Z,2.40
2018-08-04T12:00:45.050Z,2.25
2018-08-04T12:03:13.834Z,2.33
2018-08-04T12:05:42.625Z,4.33
2018-08-04T12:08:11.398Z,2.67
2018-08-04T12:10:40.197Z,3.03
2018-08-04T12:13:08.994Z,3.77
2018-08-04T12:15:37.810Z,1.80
2018-08-04T12:18:06.685Z,2.43
2018-08-04T12:20:35.473Z,2.75
2018-08-04T12:23:04.610Z,1.90
2018-08-04T12:25:33.427Z,2.42
2018-08-04T12:28:02.234Z,3.00
2018-08-04T12:30:31.367Z,2.10
2018-08-04T12:33:00.170Z,2.00
2018-08-04T12:35:29.423Z,2.87
2018-08-04T12:37:58.247Z,3.02
2018-08-04T12:40:27.211Z,1.40
2018-08-04T12:42:56.041Z,3.60
2018-08-04T12:45:25.163Z,1.98
2018-08-04T12:47:54.211Z,2.85
2018-08-04T12:50:23.010Z,2.67
2018-08-04T12:52:52.094Z,4.72
2018-08-04T12:55:20.915Z,1.75
2018-08-04T12:57:49.718Z,1.77
2018-08-04T13:00:18.498Z,3.30
2018-08-04T13:02:47.368Z,1.60
2018-08-04T13:05:16.146Z,7.12
2018-08-04T13:07:44.966Z,4.55
2018-08-04T13:10:14.393Z,1.82
2018-08-04T13:12:43.350Z,3.98
2018-08-04T13:15:12.146Z,2.40
2018-08-04T13:17:40.943Z,1.90
2018-08-04T13:20:09.730Z,1.40
2018-08-04T13:22:38.507Z,1.30
2018-08-04T13:25:07.598Z,1.95
2018-08-04T13:27:36.397Z,2.20
2018-08-04T13:30:05.489Z,2.05
2018-08-04T13:32:34.594Z,1.80
2018-08-04T13:35:03.387Z,2.87
2018-08-04T13:37:32.255Z,1.07
2018-08-04T13:40:01.053Z,1.50
2018-08-04T13:42:29.894Z,2.15
2018-08-04T13:44:58.750Z,1.17
2018-08-04T13:47:33.819Z,1.30
2018-08-04T13:50:02.638Z,1.25
2018-08-04T13:52:31.414Z,1.32
2018-08-04T13:55:00.246Z,1.45
2018-08-04T13:57:29.029Z,1.75
2018-08-04T13:59:58.126Z,1.27
2018-08-04T14:02:26.954Z,3.20
2018-08-04T14:04:55.770Z,2.33
2018-08-04T14:07:24.850Z,3.27
2018-08-04T14:09:53.672Z,2.58
2018-08-04T14:12:22.470Z,4.58
2018-08-04T14:14:51.295Z,2.85
2018-08-04T14:17:20.099Z,1.98
2018-08-04T14:19:48.854Z,1.85
2018-08-04T14:22:23.898Z,2.50
2018-08-04T14:24:52.680Z,1.57
2018-08-04T14:27:21.534Z,1.42
2018-08-04T14:29:50.324Z,2.10
2018-08-04T14:32:19.150Z,3.65
2018-08-04T14:34:47.942Z,1.45
2018-08-04T14:37:16.770Z,5.92
2018-08-04T14:39:45.538Z,1.47
2018-08-04T14:42:14.308Z,3.60
2018-08-04T14:44:43.085Z,2.12
2018-08-04T14:47:11.857Z,2.22
2018-08-04T14:49:40.701Z,1.45
2018-08-04T14:52:09.489Z,2.30
2018-08-04T14:54:38.327Z,2.10
2018-08-04T14:57:07.119Z,1.55
2018-08-04T14:59:35.890Z,2.70
2018-08-04T15:02:04.782Z,1.37
2018-08-04T15:04:33.747Z,2.15
2018-08-04T15:07:02.583Z,1.07
2018-08-04T15:09:31.395Z,1.87
2018-08-04T15:12:00.190Z,2.45
2018-08-04T15:14:28.961Z,1.55
2018-08-04T15:16:57.774Z,1.12
2018-08-04T15:19:26.543Z,3.08
2018-08-04T15:21:55.346Z,9.88
2018-08-04T15:24:24.165Z,1.92
2018-08-04T15:26:52.923Z,1.30
2018-08-04T15:29:21.717Z,3.47
2018-08-04T15:31:50.511Z,1.20
2018-08-04T15:34:19.240Z,6.00
2018-08-04T15:36:48.015Z,1.00
2018-08-04T15:39:16.806Z,1.02
2018-08-04T15:41:45.643Z,1.35
2018-08-04T15:44:14.446Z,1.37
2018-08-04T15:46:43.238Z,1.12
2018-08-04T15:49:12.015Z,1.62
2018-08-04T15:51:40.845Z,2.02
2018-08-04T15:54:09.734Z,3.47
2018-08-04T15:56:38.521Z,3.15
2018-08-04T15:59:07.407Z,1.95
2018-08-04T16:01:36.182Z,2.83
2018-08-04T16:04:05.104Z,1.70
2018-08-04T16:06:34.012Z,1.27
2018-08-04T16:09:02.889Z,0.70
2018-08-04T16:11:31.648Z,2.70
2018-08-04T16:14:00.418Z,1.00
2018-08-04T16:16:29.536Z,3.85
2018-08-04T16:18:58.286Z,0.72
2018-08-04T16:21:27.082Z,1.25
2018-08-04T16:23:56.110Z,0.60
2018-08-04T16:26:24.894Z,0.78
2018-08-04T16:28:53.657Z,6.53
2018-08-04T16:31:22.462Z,2.62
2018-08-04T16:33:51.250Z,2.20
2018-08-04T16:36:20.046Z,1.22
2018-08-04T16:38:48.818Z,2.22
2018-08-04T16:41:17.691Z,1.03
2018-08-04T16:43:46.495Z,1.03
2018-08-04T16:46:15.274Z,1.03
2018-08-04T16:48:44.035Z,1.13
2018-08-04T16:51:12.860Z,0.80
2018-08-04T16:53:41.650Z,0.70
2018-08-04T16:56:10.554Z,0.97
2018-08-04T16:58:39.354Z,0.80
2018-08-04T17:01:08.190Z,1.70
2018-08-04T17:03:36.966Z,3.47
2018-08-04T17:06:05.865Z,0.60
2018-08-04T17:08:34.754Z,1.30
2018-08-04T17:11:03.738Z,1.27
2018-08-04T17:13:33.634Z,1.13
2018-08-04T17:16:02.518Z,1.07
2018-08-04T17:18:31.394Z,1.97
2018-08-04T17:21:00.164Z,2.00
2018-08-04T17:23:29.006Z,2.17
2018-08-04T17:25:57.935Z,11.70
2018-08-04T17:28:26.706Z,20.87
2018-08-04T17:30:55.477Z,19.93
2018-08-04T17:33:24.279Z,16.87
2018-08-04T17:35:53.063Z,20.20
2018-08-04T17:38:22.153Z,13.40
2018-08-04T17:40:50.950Z,11.37
2018-08-04T17:43:20.098Z,15.87
2018-08-04T17:45:48.921Z,7.00
2018-08-04T17:48:17.702Z,6.07
2018-08-04T17:50:46.527Z,7.43
2018-08-04T17:53:15.334Z,2.50
2018-08-04T17:55:44.469Z,2.40
2018-08-04T17:58:13.549Z,2.23
2018-08-04T18:00:43.064Z,2.83
2018-08-04T18:03:12.139Z,2.43
2018-08-04T18:05:41.246Z,5.17
2018-08-04T18:08:09.845Z,3.03
2018-08-04T18:10:39.222Z,6.20
2018-08-04T18:13:08.442Z,2.40
2018-08-04T18:15:37.523Z,2.53
2018-08-04T18:18:07.547Z,1.80
2018-08-04T18:20:36.518Z,1.20
2018-08-04T18:23:05.229Z,4.33
2018-08-04T18:25:34.189Z,4.20
2018-08-04T18:28:03.159Z,2.87
2018-08-04T18:30:32.296Z,2.83
2018-08-04T18:33:01.595Z,1.33
2018-08-04T18:35:30.986Z,3.17
2018-08-04T18:37:59.996Z,4.10
2018-08-04T18:40:29.079Z,2.83
2018-08-04T18:42:58.597Z,8.30
2018-08-04T18:45:27.804Z,1.00
2018-08-04T18:47:56.890Z,1.10
2018-08-04T18:50:25.979Z,3.37
2018-08-04T18:52:55.174Z,3.40
2018-08-04T18:55:24.250Z,2.73
2018-08-04T18:57:53.795Z,3.33
2018-08-04T19:00:22.866Z,2.07
2018-08-04T19:02:52.047Z,2.97
2018-08-04T19:05:21.146Z,3.63
2018-08-04T19:07:50.254Z,0.97
2018-08-04T19:10:19.261Z,1.80
2018-08-04T19:12:48.526Z,2.27
2018-08-04T19:15:17.526Z,1.80
2018-08-04T19:17:47.646Z,3.47
2018-08-04T19:20:17.154Z,3.33
2018-08-04T19:22:46.265Z,3.90
2018-08-04T19:25:15.079Z,2.73
2018-08-04T19:27:43.907Z,3.00
2018-08-04T19:30:13.040Z,1.50
2018-08-04T19:32:42.351Z,1.33
2018-08-04T19:35:11.162Z,4.53
2018-08-04T19:37:40.618Z,2.17
2018-08-04T19:40:09.536Z,3.07
2018-08-04T19:42:38.350Z,1.53
2018-08-04T19:45:07.150Z,3.13
2018-08-04T19:47:35.914Z,2.60
2018-08-04T19:50:04.896Z,1.10
2018-08-04T19:52:33.938Z,2.53
2018-08-04T19:55:02.725Z,2.77
2018-08-04T19:57:31.526Z,2.87
2018-08-04T20:00:00.332Z,2.47
2018-08-04T20:02:29.170Z,2.50
2018-08-04T20:04:57.959Z,2.03
2018-08-04T20:07:26.774Z,2.73
2018-08-04T20:09:55.532Z,2.30
2018-08-04T20:12:24.589Z,2.40
2018-08-04T20:14:53.686Z,4.20
2018-08-04T20:17:22.506Z,3.87
2018-08-04T20:19:51.289Z,2.07
2018-08-04T20:22:20.072Z,4.60
2018-08-04T20:24:48.846Z,3.20
2018-08-04T20:27:17.633Z,3.63
2018-08-04T20:29:46.422Z,3.60
2018-08-04T20:32:15.214Z,3.47
2018-08-04T20:34:44.322Z,2.60
2018-08-04T20:37:13.142Z,1.97
2018-08-04T20:39:41.938Z,2.30
2018-08-04T20:42:10.781Z,6.47
2018-08-04T20:44:39.569Z,7.97
2018-08-04T20:47:08.365Z,1.83
2018-08-04T20:49:37.195Z,4.30
2018-08-04T20:52:06.355Z,4.47
2018-08-04T20:54:35.122Z,1.80
2018-08-04T20:57:04.194Z,2.20
2018-08-04T20:59:33.246Z,1.60
2018-08-04T21:02:03.601Z,5.37
2018-08-04T21:04:33.636Z,1.57
2018-08-04T21:07:03.138Z,3.77
2018-08-04T21:09:32.274Z,3.17
2018-08-04T21:12:01.421Z,1.83
2018-08-04T21:14:30.534Z,2.93
2018-08-04T21:17:00.024Z,4.53
2018-08-04T21:19:28.878Z,2.43
2018-08-04T21:21:57.674Z,2.43
2018-08-04T21:24:27.051Z,2.23
2018-08-04T21:26:56.395Z,1.60
2018-08-04T21:29:25.423Z,2.83
2018-08-04T21:31:54.574Z,3.20
2018-08-04T21:34:23.354Z,1.60
2018-08-04T21:36:52.162Z,3.07
2018-08-04T21:39:21.563Z,3.90
2018-08-04T21:41:50.329Z,2.20
2018-08-04T21:44:19.191Z,2.13
2018-08-04T21:46:50.238Z,3.37
2018-08-04T21:49:19.540Z,1.67
2018-08-04T21:51:49.550Z,3.70
2018-08-04T21:54:19.919Z,4.87
2018-08-04T21:56:48.403Z,2.70
2018-08-04T21:59:17.183Z,2.40
2018-08-04T22:01:51.337Z,3.87
2018-08-04T22:04:20.106Z,3.20
2018-08-04T22:07:01.898Z,2.67
2018-08-04T22:09:30.715Z,2.27
2018-08-04T22:11:59.847Z,3.57
2018-08-04T22:14:28.622Z,4.30
2018-08-04T22:16:57.410Z,5.27
2018-08-04T22:19:26.185Z,3.83
2018-08-04T22:21:55.003Z,3.93
2018-08-04T22:24:23.822Z,11.27
2018-08-04T22:26:52.597Z,5.40
2018-08-04T22:29:21.378Z,5.53
2018-08-04T22:31:50.166Z,2.10
2018-08-04T22:34:18.954Z,2.83
2018-08-04T22:36:47.729Z,3.07
2018-08-04T22:39:16.521Z,3.87
2018-08-04T22:41:45.331Z,2.57
2018-08-04T22:44:14.147Z,4.27
2018-08-04T22:46:42.963Z,2.37
2018-08-04T22:49:11.774Z,3.03
2018-08-04T22:51:40.554Z,2.00
2018-08-04T22:54:09.337Z,1.83
2018-08-04T22:56:38.044Z,3.70
2018-08-04T22:59:06.832Z,2.73
2018-08-04T23:01:35.605Z,3.30
2018-08-04T23:04:04.420Z,4.07
2018-08-04T23:06:33.214Z,2.87
2018-08-04T23:09:02.002Z,2.13
2018-08-04T23:11:30.758Z,2.30
2018-08-04T23:13:59.538Z,1.70
2018-08-04T23:16:28.363Z,1.53
2018-08-04T23:18:57.154Z,2.77
2018-08-04T23:21:25.962Z,1.40
2018-08-04T23:23:54.762Z,1.97
2018-08-04T23:26:23.571Z,2.57
2018-08-04T23:28:52.352Z,3.70
2018-08-04T23:31:21.125Z,3.90
2018-08-04T23:33:49.886Z,4.93
2018-08-04T23:36:18.646Z,2.40
2018-08-04T23:38:47.467Z,3.97
2018-08-04T23:41:16.274Z,2.40
2018-08-04T23:43:45.087Z,4.63
2018-08-04T23:46:13.898Z,1.37
2018-08-04T23:48:42.686Z,4.00
2018-08-04T23:51:11.512Z,3.33
2018-08-04T23:53:40.367Z,3.47
2018-08-04T23:56:09.134Z,3.77
2018-08-04T23:58:37.934Z,3.77
